createdAt,value
2019-04-10T00:02:19.985Z,99992.77
2019-04-10T00:04:50.119Z,99988.08
2019-04-10T00:07:19.809Z,99992.38
2019-04-10T00:09:49.559Z,99990.45
2019-04-10T00:12:18.057Z,99993.77
2019-04-10T00:14:46.589Z,99995.57
2019-04-10T00:17:15.069Z,99992.08
2019-04-10T00:19:43.754Z,99992.95
2019-04-10T00:22:12.285Z,99997.43
2019-04-10T00:24:41.033Z,99995.44
2019-04-10T00:27:10.372Z,99998.75
2019-04-10T00:29:40.400Z,99998.44
2019-04-10T00:32:11.902Z,99994.94
2019-04-10T00:34:40.395Z,99996.92
2019-04-10T00:37:20.487Z,100002.73
2019-04-10T00:39:39.280Z,100000.73
2019-04-10T00:42:08.470Z,100006.47
2019-04-10T00:44:37.520Z,100005.35
2019-04-10T00:47:06.588Z,100008.36
2019-04-10T00:49:35.080Z,100002.25
2019-04-10T00:52:03.892Z,100000.92
2019-04-10T00:54:33.063Z,100002.38
2019-04-10T00:57:01.632Z,100004.06
2019-04-10T00:59:30.364Z,100002.76
2019-04-10T01:01:58.814Z,100004.05
2019-04-10T01:04:27.291Z,100003.06
2019-04-10T01:06:56.683Z,100004.55
2019-04-10T01:09:25.606Z,100004.23
2019-04-10T01:11:55.029Z,100004.86
2019-04-10T01:14:23.724Z,99999.75
2019-04-10T01:16:52.214Z,99997.42
2019-04-10T01:19:20.778Z,99995.94
2019-04-10T01:21:49.356Z,99994.77
2019-04-10T01:24:17.759Z,99999.23
2019-04-10T01:26:46.223Z,99993.42
2019-04-10T01:29:15.479Z,99995.73
2019-04-10T01:31:44.036Z,100000.31
2019-04-10T01:34:13.525Z,100002.51
2019-04-10T01:36:42.092Z,100001.00
2019-04-10T01:39:12.209Z,99999.91
2019-04-10T01:41:41.692Z,99997.56
2019-04-10T01:44:11.101Z,99991.77
2019-04-10T01:46:40.272Z,99995.10
2019-04-10T01:49:09.252Z,99991.13
2019-04-10T01:51:37.762Z,99986.47
2019-04-10T01:54:06.892Z,99990.77
2019-04-10T01:56:36.771Z,99989.30
2019-04-10T01:59:05.747Z,99995.13
2019-04-10T02:01:38.796Z,99996.02
2019-04-10T02:04:07.322Z,99995.39
2019-04-10T02:06:35.836Z,99995.41
2019-04-10T02:09:07.402Z,99988.25
2019-04-10T02:11:35.883Z,99991.43
2019-04-10T02:14:04.308Z,99983.95
2019-04-10T02:16:32.858Z,99983.50
2019-04-10T02:19:01.658Z,99985.61
2019-04-10T02:21:30.213Z,99980.49
2019-04-10T02:23:58.727Z,99979.16
2019-04-10T02:26:27.660Z,99985.80
2019-04-10T02:28:56.078Z,99982.33
2019-04-10T02:31:26.340Z,99977.48
2019-04-10T02:33:56.952Z,99976.65
2019-04-10T02:36:25.662Z,99982.78
2019-04-10T02:39:10.012Z,99973.52
2019-04-10T02:41:25.556Z,99972.48
2019-04-10T02:43:55.468Z,99971.67
2019-04-10T02:46:25.080Z,99973.56
2019-04-10T02:48:54.337Z,99977.48
2019-04-10T02:51:24.721Z,99975.50
2019-04-10T02:53:55.512Z,99969.70
2019-04-10T02:56:25.251Z,99974.52
2019-04-10T02:58:54.343Z,99975.66
2019-04-10T03:01:23.509Z,99975.48
2019-04-10T03:03:54.779Z,99981.78
2019-04-10T03:06:22.914Z,99983.92
2019-04-10T03:09:07.949Z,99982.12
2019-04-10T03:11:22.250Z,99981.95
2019-04-10T03:13:53.285Z,99981.66
2019-04-10T03:16:22.078Z,99981.95
2019-04-10T03:18:50.527Z,99989.66
2019-04-10T03:21:18.931Z,99981.84
2019-04-10T03:23:47.608Z,99987.57
2019-04-10T03:26:16.001Z,99987.39
2019-04-10T03:28:44.580Z,99987.41
2019-04-10T03:31:14.804Z,99985.75
2019-04-10T03:33:47.518Z,99983.56
2019-04-10T03:36:15.661Z,99983.39
2019-04-10T03:38:55.264Z,99984.06
2019-04-10T03:41:14.328Z,99984.73
2019-04-10T03:43:43.755Z,99987.03
2019-04-10T03:46:13.013Z,99988.59
2019-04-10T03:48:41.517Z,99988.88
2019-04-10T03:51:09.952Z,99988.83
2019-04-10T03:53:38.352Z,99982.45
2019-04-10T03:56:07.541Z,99981.03
2019-04-10T03:58:35.988Z,99978.89
2019-04-10T04:01:04.809Z,99987.97
2019-04-10T04:03:33.302Z,99986.86
2019-04-10T04:06:01.715Z,99978.97
2019-04-10T04:08:30.230Z,99984.36
2019-04-10T04:10:59.446Z,99992.02
2019-04-10T04:13:28.030Z,99987.55
2019-04-10T04:15:56.446Z,99987.05
2019-04-10T04:18:24.967Z,99983.39
2019-04-10T04:20:53.444Z,99986.55
2019-04-10T04:23:21.948Z,99983.78
2019-04-10T04:25:50.480Z,99983.44
2019-04-10T04:28:18.951Z,99992.69
2019-04-10T04:30:47.502Z,99992.20
2019-04-10T04:33:15.947Z,99992.63
2019-04-10T04:35:44.349Z,99993.64
2019-04-10T04:38:13.449Z,99989.69
2019-04-10T04:40:42.089Z,99993.68
2019-04-10T04:43:10.542Z,99991.69
2019-04-10T04:45:39.006Z,100001.46
2019-04-10T04:48:07.762Z,100000.30
2019-04-10T04:50:36.248Z,100006.77
2019-04-10T04:53:04.692Z,100005.59
2019-04-10T04:55:33.209Z,100007.55
2019-04-10T04:58:01.948Z,100006.77
2019-04-10T05:00:30.594Z,100017.89
2019-04-10T05:02:59.793Z,100021.42
2019-04-10T05:05:29.291Z,100019.90
2019-04-10T05:08:02.224Z,100025.86
2019-04-10T05:10:28.031Z,100025.02
2019-04-10T05:12:57.767Z,100026.11
2019-04-10T05:15:26.965Z,100028.48
2019-04-10T05:17:55.643Z,100030.17
2019-04-10T05:20:24.166Z,100031.69
2019-04-10T05:22:54.547Z,100044.34
2019-04-10T05:25:22.752Z,100038.95
2019-04-10T05:27:51.200Z,100048.38
2019-04-10T05:30:20.668Z,100043.99
2019-04-10T05:32:49.370Z,100047.33
2019-04-10T05:35:17.973Z,100043.38
2019-04-10T05:37:46.430Z,100054.98
2019-04-10T05:40:15.261Z,100047.45
2019-04-10T05:42:44.938Z,100049.10
2019-04-10T05:45:14.832Z,100055.23
2019-04-10T05:47:44.437Z,100061.08
2019-04-10T05:50:13.082Z,100058.77
2019-04-10T05:52:41.473Z,100068.58
2019-04-10T05:55:10.111Z,100065.62
2019-04-10T05:57:38.532Z,100063.58
2019-04-10T06:00:10.675Z,100070.92
2019-04-10T06:02:39.806Z,100070.97
2019-04-10T06:05:08.388Z,100070.01
2019-04-10T06:07:37.145Z,100076.42
2019-04-10T06:10:10.330Z,100080.50
2019-04-10T06:12:38.378Z,100074.90
2019-04-10T06:15:07.947Z,100074.06
2019-04-10T06:17:36.377Z,100069.14
2019-04-10T06:20:07.189Z,100081.06
2019-04-10T06:22:37.303Z,100080.25
2019-04-10T06:25:08.639Z,100071.37
2019-04-10T06:27:36.768Z,100083.06
2019-04-10T06:30:07.864Z,100083.16
2019-04-10T06:32:37.580Z,100084.73
2019-04-10T06:35:07.917Z,100087.53
2019-04-10T06:37:36.515Z,100083.80
2019-04-10T06:40:14.270Z,100079.12
2019-04-10T06:42:46.450Z,100080.77
2019-04-10T06:45:07.604Z,100084.83
2019-04-10T06:47:36.276Z,100086.55
2019-04-10T06:50:06.643Z,100093.61
2019-04-10T06:52:35.334Z,100087.03
2019-04-10T06:55:05.073Z,100090.95
2019-04-10T06:57:45.128Z,100086.53
2019-04-10T07:00:13.670Z,100088.16
2019-04-10T07:02:40.027Z,100093.61
2019-04-10T07:05:10.496Z,100095.06
2019-04-10T07:07:49.516Z,100099.91
2019-04-10T07:10:20.631Z,100101.36
2019-04-10T07:12:39.850Z,100104.56
2019-04-10T07:15:10.663Z,100105.41
2019-04-10T07:17:41.162Z,100104.61
2019-04-10T07:20:09.768Z,100113.69
2019-04-10T07:22:43.274Z,100109.30
2019-04-10T07:25:10.318Z,100113.67
2019-04-10T07:27:40.494Z,100121.83
2019-04-10T07:30:09.919Z,100118.92
2019-04-10T07:32:41.218Z,100123.62
2019-04-10T07:35:08.976Z,100125.48
2019-04-10T07:37:37.660Z,100128.96
2019-04-10T07:40:08.052Z,100128.34
2019-04-10T07:42:39.722Z,100142.59
2019-04-10T07:45:08.610Z,100132.06
2019-04-10T07:47:38.004Z,100135.09
2019-04-10T07:50:08.695Z,100127.57
2019-04-10T07:52:37.439Z,100135.09
2019-04-10T07:55:06.698Z,100130.07
2019-04-10T07:57:36.332Z,100134.53
2019-04-10T08:00:09.191Z,100134.54
2019-04-10T08:02:38.504Z,100134.89
2019-04-10T08:05:08.190Z,100134.19
2019-04-10T08:07:38.835Z,100137.18
2019-04-10T08:10:07.969Z,100138.64
2019-04-10T08:12:43.281Z,100134.83
2019-04-10T08:15:07.360Z,100140.30
2019-04-10T08:17:36.838Z,100137.34
2019-04-10T08:20:06.191Z,100134.25
2019-04-10T08:22:34.990Z,100132.45
2019-04-10T08:25:04.549Z,100133.21
2019-04-10T08:27:34.040Z,100138.06
2019-04-10T08:30:03.333Z,100137.91
2019-04-10T08:32:32.234Z,100142.27
2019-04-10T08:35:02.102Z,100137.48
2019-04-10T08:37:30.653Z,100149.99
2019-04-10T08:39:59.290Z,100145.19
2019-04-10T08:42:27.740Z,100156.69
2019-04-10T08:44:56.437Z,100152.30
2019-04-10T08:47:25.017Z,100154.20
2019-04-10T08:49:53.563Z,100152.27
2019-04-10T08:52:22.113Z,100157.77
2019-04-10T08:54:51.216Z,100158.11
2019-04-10T08:57:19.731Z,100148.59
2019-04-10T08:59:48.364Z,100151.78
2019-04-10T09:02:18.036Z,100156.97
2019-04-10T09:04:46.870Z,100157.61
2019-04-10T09:07:15.885Z,100164.83
2019-04-10T09:09:44.402Z,100157.08
2019-04-10T09:12:13.588Z,100159.84
2019-04-10T09:14:43.349Z,100166.42
2019-04-10T09:17:11.887Z,100168.02
2019-04-10T09:19:40.329Z,100156.91
2019-04-10T09:22:09.990Z,100157.02
2019-04-10T09:24:38.612Z,100167.01
2019-04-10T09:27:07.198Z,100158.86
2019-04-10T09:29:36.236Z,100165.34
2019-04-10T09:32:04.647Z,100163.20
2019-04-10T09:34:34.043Z,100166.99
2019-04-10T09:37:02.527Z,100166.34
2019-04-10T09:39:31.742Z,100160.55
2019-04-10T09:42:01.228Z,100161.33
2019-04-10T09:44:29.906Z,100167.13
2019-04-10T09:46:58.323Z,100169.64
2019-04-10T09:49:37.639Z,100170.82
2019-04-10T09:51:58.627Z,100167.50
2019-04-10T09:54:28.149Z,100174.69
2019-04-10T09:56:57.086Z,100168.73
2019-04-10T09:59:32.985Z,100173.50
2019-04-10T10:01:56.361Z,100171.56
2019-04-10T10:04:25.714Z,100162.51
2019-04-10T10:06:54.283Z,100165.36
2019-04-10T10:09:23.787Z,100169.19
2019-04-10T10:11:53.431Z,100164.18
2019-04-10T10:14:22.990Z,100163.32
2019-04-10T10:16:52.617Z,100162.17
2019-04-10T10:19:21.822Z,100163.67
2019-04-10T10:21:50.549Z,100164.68
2019-04-10T10:24:19.012Z,100166.99
2019-04-10T10:26:47.458Z,100169.31
2019-04-10T10:29:15.862Z,100165.16
2019-04-10T10:31:44.516Z,100171.13
2019-04-10T10:34:13.062Z,100176.33
2019-04-10T10:36:45.906Z,100167.48
2019-04-10T10:39:20.979Z,100169.78
2019-04-10T10:41:50.938Z,100166.16
2019-04-10T10:44:19.688Z,100172.89
2019-04-10T16:20:06.977Z,100187.03
2019-04-10T16:22:37.449Z,100185.73
2019-04-10T16:25:11.564Z,100190.91
2019-04-10T16:27:41.140Z,100190.41
2019-04-10T16:30:15.562Z,100192.41
2019-04-10T16:32:44.470Z,100193.28
2019-04-10T16:35:13.912Z,100195.58
2019-04-10T16:37:42.503Z,100194.73
2019-04-10T16:40:11.802Z,100198.02
2019-04-10T16:42:41.720Z,100199.91
2019-04-10T16:45:10.943Z,100199.50
2019-04-10T16:47:39.385Z,100202.62
2019-04-10T16:50:09.165Z,100207.33
2019-04-10T16:52:37.595Z,100217.52
2019-04-10T16:55:08.383Z,100210.02
2019-04-10T16:57:36.958Z,100211.56
2019-04-10T17:00:09.013Z,100207.40
2019-04-10T17:02:37.524Z,100216.89
2019-04-10T17:05:08.187Z,100219.55
2019-04-10T17:07:37.322Z,100219.72
2019-04-10T17:10:16.047Z,100222.21
2019-04-10T17:12:38.563Z,100225.20
2019-04-10T17:15:10.260Z,100226.04
2019-04-10T17:17:39.037Z,100229.70
2019-04-10T17:20:08.656Z,100232.87
2019-04-10T17:22:43.508Z,100235.06
2019-04-10T17:25:07.731Z,100238.72
2019-04-10T17:27:37.455Z,100243.38
2019-04-10T17:30:07.769Z,100252.58
2019-04-10T17:32:43.209Z,100257.71
2019-04-10T17:35:13.769Z,100257.23
2019-04-10T17:37:42.298Z,100259.53
2019-04-10T17:40:25.131Z,100269.53
2019-04-10T17:42:44.396Z,100265.23
2019-04-10T17:45:14.213Z,100270.87
2019-04-10T17:47:42.990Z,100270.89
2019-04-10T17:50:14.160Z,100279.88
2019-04-10T17:52:42.987Z,100280.54
2019-04-10T17:55:11.751Z,100281.19
2019-04-10T17:57:44.164Z,100285.36
2019-04-10T18:00:21.139Z,100282.22
2019-04-10T18:02:50.823Z,100296.84
2019-04-10T18:05:20.361Z,100299.34
2019-04-10T18:07:48.849Z,100301.34
2019-04-10T18:10:17.562Z,100310.12
2019-04-10T18:12:46.125Z,100307.16
2019-04-10T18:15:15.734Z,100306.13
2019-04-10T18:17:44.288Z,100318.25
2019-04-10T18:20:12.779Z,100316.77
2019-04-10T18:22:42.751Z,100317.77
2019-04-10T18:25:14.186Z,100324.42
2019-04-10T18:27:42.910Z,100325.37
2019-04-10T18:30:12.100Z,100331.72
2019-04-10T18:32:40.497Z,100332.02
2019-04-10T18:35:09.046Z,100342.00
2019-04-10T18:37:37.494Z,100350.83
2019-04-10T18:40:07.499Z,100347.34
2019-04-10T18:42:37.302Z,100355.63
2019-04-10T18:45:09.167Z,100361.73
2019-04-10T18:47:39.281Z,100361.89
2019-04-10T18:50:08.209Z,100359.70
2019-04-10T18:52:37.353Z,100368.22
2019-04-10T18:55:07.901Z,100377.06
2019-04-10T18:57:36.528Z,100379.82
2019-04-10T19:00:10.139Z,100377.16
2019-04-10T19:02:43.621Z,100390.30
2019-04-10T19:05:25.687Z,100387.66
2019-04-10T19:07:54.508Z,100396.34
2019-04-10T19:10:23.096Z,100395.77
2019-04-10T19:12:51.574Z,100397.30
2019-04-10T19:15:20.438Z,100402.69
2019-04-10T19:17:49.059Z,100403.22
2019-04-10T19:20:17.970Z,100414.61
2019-04-10T19:22:46.495Z,100415.90
2019-04-10T19:25:15.147Z,100418.58
2019-04-10T19:27:44.485Z,100429.66
2019-04-10T19:30:33.840Z,100435.77
2019-04-10T19:33:02.332Z,100432.06
2019-04-10T19:35:31.113Z,100429.69
2019-04-10T19:37:59.592Z,100433.92
2019-04-10T19:40:28.063Z,100440.61
2019-04-10T19:42:57.757Z,100443.50
2019-04-10T19:45:27.948Z,100445.41
2019-04-10T19:47:57.041Z,100444.66
2019-04-10T19:50:25.592Z,100445.97
2019-04-10T19:52:55.044Z,100448.81
2019-04-10T19:55:23.981Z,100448.20
2019-04-10T19:57:53.331Z,100455.11
2019-04-10T20:00:24.243Z,100447.66
2019-04-10T20:03:26.321Z,100443.97
2019-04-10T20:05:55.553Z,100449.80
2019-04-10T20:08:24.069Z,100450.72
2019-04-10T20:10:52.598Z,100458.63
2019-04-10T20:13:21.074Z,100457.45
2019-04-10T20:15:49.549Z,100460.42
2019-04-10T20:18:18.946Z,100467.97
2019-04-10T20:20:47.802Z,100460.48
2019-04-10T20:23:16.415Z,100464.13
2019-04-10T20:25:44.828Z,100468.48
2019-04-10T20:28:14.259Z,100463.64
2019-04-10T20:30:42.795Z,100463.64
2019-04-10T20:33:57.185Z,100467.47
2019-04-10T20:36:25.867Z,100472.64
2019-04-10T20:38:54.246Z,100481.20
2019-04-10T20:41:22.686Z,100481.17
2019-04-10T20:43:53.344Z,100486.05
2019-04-10T20:46:22.276Z,100484.87
2019-04-10T20:48:50.890Z,100480.02
2019-04-10T20:51:19.342Z,100486.25
2019-04-10T20:53:48.461Z,100488.70
2019-04-10T20:56:18.306Z,100491.36
2019-04-10T20:58:47.232Z,100489.11
2019-04-10T21:01:16.759Z,100500.06
2019-04-10T21:03:45.264Z,100505.51
2019-04-10T21:06:13.801Z,100503.34
2019-04-10T21:08:42.502Z,100508.06
2019-04-10T21:11:11.722Z,100502.66
2019-04-10T21:13:40.521Z,100509.14
2019-04-10T21:16:09.264Z,100511.36
2019-04-10T21:18:37.814Z,100516.17
2019-04-10T21:21:06.244Z,100516.48
2019-04-10T21:23:35.601Z,100517.95
2019-04-10T21:26:04.330Z,100520.69
2019-04-10T21:28:32.783Z,100515.03
2019-04-10T21:31:05.399Z,100525.91
2019-04-10T21:33:43.576Z,100522.42
2019-04-10T21:36:12.024Z,100520.92
2019-04-10T21:38:40.724Z,100526.44
2019-04-10T21:41:10.878Z,100528.28
2019-04-10T21:43:39.490Z,100535.92
2019-04-10T21:46:08.310Z,100542.44
2019-04-10T21:48:37.222Z,100546.22
2019-04-10T21:51:06.700Z,100543.97
2019-04-10T21:53:35.973Z,100547.73
2019-04-10T21:56:06.254Z,100544.27
2019-04-10T21:58:37.468Z,100542.58
2019-04-10T22:01:09.848Z,100545.80
2019-04-10T22:03:38.551Z,100555.66
2019-04-10T22:06:09.297Z,100547.37
2019-04-10T22:08:39.437Z,100560.08
2019-04-10T22:11:08.550Z,100559.11
2019-04-10T22:13:38.023Z,100562.43
2019-04-10T22:16:09.266Z,100553.10
2019-04-10T22:18:37.842Z,100563.83
2019-04-10T22:21:08.303Z,100561.44
2019-04-10T22:23:36.692Z,100566.83
2019-04-10T22:26:05.274Z,100569.97
2019-04-10T22:28:33.922Z,100568.83
2019-04-10T22:31:02.383Z,100571.00
2019-04-10T22:33:43.239Z,100573.32
2019-04-10T22:36:12.797Z,100577.08
2019-04-10T22:38:41.929Z,100578.97
2019-04-10T22:41:22.926Z,100573.09
2019-04-10T22:43:40.815Z,100576.64
2019-04-10T22:46:09.270Z,100577.56
2019-04-10T22:48:37.744Z,100584.61
2019-04-10T22:51:08.062Z,100580.34
2019-04-10T22:53:37.464Z,100581.75
2019-04-10T22:56:06.963Z,100582.59
2019-04-10T22:58:35.485Z,100581.96
2019-04-10T23:01:04.741Z,100583.47
2019-04-10T23:03:33.200Z,100585.84
2019-04-10T23:06:01.668Z,100579.93
2019-04-10T23:08:30.060Z,100580.14
2019-04-10T23:10:59.502Z,100584.59
2019-04-10T23:13:28.065Z,100584.03
2019-04-10T23:15:57.753Z,100586.50
2019-04-10T23:18:27.496Z,100580.33
2019-04-10T23:20:57.022Z,100591.40
2019-04-10T23:23:25.657Z,100583.73
2019-04-10T23:25:54.056Z,100589.18
2019-04-10T23:28:23.128Z,100600.13
2019-04-10T23:30:51.700Z,100601.91
2019-04-10T23:33:20.156Z,100593.16
2019-04-10T23:35:49.626Z,100600.16
2019-04-10T23:38:18.016Z,100599.55
2019-04-10T23:40:47.275Z,100602.48
2019-04-10T23:43:18.106Z,100600.80
2019-04-10T23:45:46.069Z,100608.19
2019-04-10T23:48:16.919Z,100613.98
2019-04-10T23:50:46.138Z,100619.78
2019-04-10T23:53:14.664Z,100620.59
2019-04-10T23:55:43.082Z,100623.85
2019-04-10T23:58:11.714Z,100623.70
